sensor_id;sensor_type;location;lat;lon;timestamp;pressure;altitude;pressure_sealevel;temperature;humidity
54978;BME280;40873;47.522;19.106;2023-06-14T00:02:04;100099.28;;;13.83;100.00
54978;BME280;40873;47.522;19.106;2023-06-14T00:04:32;100095.06;;;13.81;100.00
54978;BME280;40873;47.522;19.106;2023-06-14T00:06:59;100095.31;;;13.78;100.00
54978;BME280;40873;47.522;19.106;2023-06-14T00:09:29;100094.69;;;13.74;100.00
54978;BME280;40873;47.522;19.106;2023-06-14T00:11:56;100098.44;;;13.71;100.00
54978;BME280;40873;47.522;19.106;2023-06-14T00:14:23;100095.03;;;13.69;100.00
54978;BME280;40873;47.522;19.106;2023-06-14T00:16:50;100096.59;;;13.61;100.00
54978;BME280;40873;47.522;19.106;2023-06-14T00:19:21;100096.72;;;13.59;100.00
54978;BME280;40873;47.522;19.106;2023-06-14T00:21:51;100102.38;;;13.55;100.00
54978;BME280;40873;47.522;19.106;2023-06-14T00:24:19;100111.16;;;13.55;100.00
54978;BME280;40873;47.522;19.106;2023-06-14T00:26:47;100105.16;;;13.53;100.00
54978;BME280;40873;47.522;19.106;2023-06-14T00:29:14;100109.38;;;13.56;100.00
54978;BME280;40873;47.522;19.106;2023-06-14T00:31:41;100110.78;;;13.49;100.00
54978;BME280;40873;47.522;19.106;2023-06-14T00:34:08;100113.69;;;13.46;100.00
54978;BME280;40873;47.522;19.106;2023-06-14T00:36:36;100107.88;;;13.40;100.00
54978;BME280;40873;47.522;19.106;2023-06-14T00:39:03;100106.31;;;13.38;100.00
54978;BME280;40873;47.522;19.106;2023-06-14T00:41:33;100117.25;;;13.33;100.00
54978;BME280;40873;47.522;19.106;2023-06-14T00:44:00;100104.97;;;13.32;100.00
54978;BME280;40873;47.522;19.106;2023-06-14T00:46:27;100110.53;;;13.29;100.00
54978;BME280;40873;47.522;19.106;2023-06-14T00:48:56;100117.84;;;13.26;100.00
54978;BME280;40873;47.522;19.106;2023-06-14T00:51:25;100119.66;;;13.25;100.00
54978;BME280;40873;47.522;19.106;2023-06-14T00:53:53;100123.13;;;13.26;100.00
54978;BME280;40873;47.522;19.106;2023-06-14T00:56:20;100123.25;;;13.24;100.00
54978;BME280;40873;47.522;19.106;2023-06-14T00:58:48;100114.34;;;13.25;100.00
54978;BME280;40873;47.522;19.106;2023-06-14T01:01:15;100110.63;;;13.28;100.00
54978;BME280;40873;47.522;19.106;2023-06-14T01:03:42;100112.88;;;13.21;100.00
54978;BME280;40873;47.522;19.106;2023-06-14T01:11:41;100108.97;;;13.14;100.00
54978;BME280;40873;47.522;19.106;2023-06-14T01:14:13;100108.38;;;13.10;100.00
54978;BME280;40873;47.522;19.106;2023-06-14T01:16:41;100106.88;;;13.06;100.00
54978;BME280;40873;47.522;19.106;2023-06-14T01:19:11;100109.53;;;13.06;100.00
54978;BME280;40873;47.522;19.106;2023-06-14T01:21:43;100115.81;;;13.05;100.00
54978;BME280;40873;47.522;19.106;2023-06-14T01:24:12;100100.16;;;13.02;100.00
54978;BME280;40873;47.522;19.106;2023-06-14T01:26:39;100101.44;;;12.97;100.00
54978;BME280;40873;47.522;19.106;2023-06-14T01:29:14;100101.69;;;12.94;100.00
54978;BME280;40873;47.522;19.106;2023-06-14T01:31:45;100103.13;;;12.98;100.00
54978;BME280;40873;47.522;19.106;2023-06-14T01:34:12;100092.78;;;12.95;100.00
54978;BME280;40873;47.522;19.106;2023-06-14T01:36:41;100105.50;;;12.89;100.00
54978;BME280;40873;47.522;19.106;2023-06-14T01:39:12;100102.13;;;12.87;100.00
54978;BME280;40873;47.522;19.106;2023-06-14T01:41:41;100106.59;;;12.87;100.00
54978;BME280;40873;47.522;19.106;2023-06-14T01:44:10;100106.59;;;12.87;100.00
54978;BME280;40873;47.522;19.106;2023-06-14T01:46:37;100111.13;;;12.85;100.00
54978;BME280;40873;47.522;19.106;2023-06-14T01:49:04;100111.03;;;12.86;100.00
54978;BME280;40873;47.522;19.106;2023-06-14T01:51:31;100113.16;;;12.81;100.00
54978;BME280;40873;47.522;19.106;2023-06-14T01:53:58;100111.69;;;12.77;100.00
54978;BME280;40873;47.522;19.106;2023-06-14T01:56:26;100110.84;;;12.77;100.00
54978;BME280;40873;47.522;19.106;2023-06-14T01:58:54;100117.94;;;12.76;100.00
54978;BME280;40873;47.522;19.106;2023-06-14T02:01:21;100117.94;;;12.76;100.00
54978;BME280;40873;47.522;19.106;2023-06-14T02:03:49;100122.72;;;12.71;100.00
54978;BME280;40873;47.522;19.106;2023-06-14T02:06:17;100113.53;;;12.64;100.00
54978;BME280;40873;47.522;19.106;2023-06-14T02:08:45;100117.16;;;12.63;100.00
54978;BME280;40873;47.522;19.106;2023-06-14T02:11:12;100132.91;;;12.65;100.00
54978;BME280;40873;47.522;19.106;2023-06-14T02:13:39;100129.13;;;12.56;100.00
54978;BME280;40873;47.522;19.106;2023-06-14T02:16:06;100123.13;;;12.54;100.00
54978;BME280;40873;47.522;19.106;2023-06-14T02:18:34;100123.22;;;12.52;100.00
54978;BME280;40873;47.522;19.106;2023-06-14T02:21:01;100132.09;;;12.51;100.00
54978;BME280;40873;47.522;19.106;2023-06-14T02:23:29;100121.53;;;12.51;100.00
54978;BME280;40873;47.522;19.106;2023-06-14T02:26:00;100126.81;;;12.51;100.00
54978;BME280;40873;47.522;19.106;2023-06-14T02:28:27;100128.63;;;12.51;100.00
54978;BME280;40873;47.522;19.106;2023-06-14T02:30:55;100125.13;;;12.50;100.00
54978;BME280;40873;47.522;19.106;2023-06-14T02:33:25;100122.91;;;12.44;100.00
54978;BME280;40873;47.522;19.106;2023-06-14T02:35:52;100120.28;;;12.44;100.00
54978;BME280;40873;47.522;19.106;2023-06-14T02:38:19;100122.91;;;12.44;100.00
54978;BME280;40873;47.522;19.106;2023-06-14T02:40:47;100126.03;;;12.38;100.00
54978;BME280;40873;47.522;19.106;2023-06-14T02:43:14;100135.97;;;12.34;100.00
54978;BME280;40873;47.522;19.106;2023-06-14T02:45:41;100128.25;;;12.31;100.00
54978;BME280;40873;47.522;19.106;2023-06-14T02:48:09;100117.88;;;12.28;100.00
54978;BME280;40873;47.522;19.106;2023-06-14T02:50:36;100123.16;;;12.28;100.00
54978;BME280;40873;47.522;19.106;2023-06-14T02:53:04;100113.31;;;12.30;100.00
54978;BME280;40873;47.522;19.106;2023-06-14T02:55:30;100110.78;;;12.29;100.00
54978;BME280;40873;47.522;19.106;2023-06-14T02:57:58;100116.31;;;12.26;100.00
54978;BME280;40873;47.522;19.106;2023-06-14T03:00:25;100115.34;;;12.27;100.00
54978;BME280;40873;47.522;19.106;2023-06-14T03:02:53;100119.78;;;12.26;100.00
54978;BME280;40873;47.522;19.106;2023-06-14T03:05:22;100118.59;;;12.30;100.00
54978;BME280;40873;47.522;19.106;2023-06-14T03:07:49;100122.22;;;12.29;100.00
54978;BME280;40873;47.522;19.106;2023-06-14T03:10:18;100110.66;;;12.30;100.00
54978;BME280;40873;47.522;19.106;2023-06-14T03:12:50;100117.75;;;12.30;100.00
54978;BME280;40873;47.522;19.106;2023-06-14T03:15:19;100120.22;;;12.33;100.00
54978;BME280;40873;47.522;19.106;2023-06-14T03:17:46;100120.94;;;12.35;100.00
54978;BME280;40873;47.522;19.106;2023-06-14T03:20:16;100113.41;;;12.42;100.00
54978;BME280;40873;47.522;19.106;2023-06-14T03:22:46;100109.69;;;12.44;100.00
54978;BME280;40873;47.522;19.106;2023-06-14T03:25:14;100119.66;;;12.41;100.00
54978;BME280;40873;47.522;19.106;2023-06-14T03:27:42;100115.09;;;12.43;100.00
54978;BME280;40873;47.522;19.106;2023-06-14T03:30:09;100125.34;;;12.47;100.00
54978;BME280;40873;47.522;19.106;2023-06-14T03:32:36;100127.88;;;12.49;100.00
54978;BME280;40873;47.522;19.106;2023-06-14T03:35:05;100120.69;;;12.51;100.00
54978;BME280;40873;47.522;19.106;2023-06-14T03:37:32;100124.81;;;12.55;100.00
54978;BME280;40873;47.522;19.106;2023-06-14T03:40:02;100123.72;;;12.57;100.00
54978;BME280;40873;47.522;19.106;2023-06-14T03:42:33;100121.47;;;12.64;100.00
54978;BME280;40873;47.522;19.106;2023-06-14T03:45:00;100120.31;;;12.68;100.00
54978;BME280;40873;47.522;19.106;2023-06-14T03:47:28;100128.41;;;12.78;100.00
54978;BME280;40873;47.522;19.106;2023-06-14T03:49:55;100126.06;;;12.86;100.00
54978;BME280;40873;47.522;19.106;2023-06-14T03:52:25;100126.81;;;12.88;100.00
54978;BME280;40873;47.522;19.106;2023-06-14T03:54:53;100128.16;;;12.94;100.00
54978;BME280;40873;47.522;19.106;2023-06-14T03:57:23;100130.56;;;12.97;100.00
54978;BME280;40873;47.522;19.106;2023-06-14T03:59:50;100138.06;;;13.03;100.00
54978;BME280;40873;47.522;19.106;2023-06-14T04:02:18;100133.03;;;13.11;100.00
54978;BME280;40873;47.522;19.106;2023-06-14T04:04:45;100132.59;;;13.17;100.00
54978;BME280;40873;47.522;19.106;2023-06-14T04:07:15;100134.69;;;13.25;100.00
54978;BME280;40873;47.522;19.106;2023-06-14T04:09:46;100134.13;;;13.32;100.00
54978;BME280;40873;47.522;19.106;2023-06-14T04:12:16;100135.81;;;13.33;100.00
54978;BME280;40873;47.522;19.106;2023-06-14T04:14:43;100132.38;;;13.44;100.00
54978;BME280;40873;47.522;19.106;2023-06-14T04:17:10;100143.22;;;13.52;100.00
54978;BME280;40873;47.522;19.106;2023-06-14T04:19:37;100140.00;;;13.60;100.00
54978;BME280;40873;47.522;19.106;2023-06-14T04:22:05;100137.84;;;13.65;100.00
54978;BME280;40873;47.522;19.106;2023-06-14T04:24:32;100147.22;;;13.69;100.00
54978;BME280;40873;47.522;19.106;2023-06-14T04:27:02;100149.19;;;13.78;100.00
54978;BME280;40873;47.522;19.106;2023-06-14T04:29:29;100142.31;;;13.87;100.00
54978;BME280;40873;47.522;19.106;2023-06-14T04:31:58;100148.72;;;13.95;100.00
54978;BME280;40873;47.522;19.106;2023-06-14T04:34:26;100162.00;;;14.07;100.00
54978;BME280;40873;47.522;19.106;2023-06-14T04:36:56;100151.63;;;14.15;100.00
54978;BME280;40873;47.522;19.106;2023-06-14T04:39:27;100157.31;;;14.21;100.00
54978;BME280;40873;47.522;19.106;2023-06-14T04:41:54;100147.41;;;14.23;100.00
54978;BME280;40873;47.522;19.106;2023-06-14T04:44:24;100152.59;;;14.36;100.00
54978;BME280;40873;47.522;19.106;2023-06-14T04:46:57;100154.50;;;14.45;100.00
54978;BME280;40873;47.522;19.106;2023-06-14T04:49:25;100159.84;;;14.57;100.00
54978;BME280;40873;47.522;19.106;2023-06-14T04:51:56;100166.09;;;14.67;100.00
54978;BME280;40873;47.522;19.106;2023-06-14T04:54:28;100169.09;;;14.73;100.00
54978;BME280;40873;47.522;19.106;2023-06-14T04:57:01;100159.59;;;14.82;100.00
54978;BME280;40873;47.522;19.106;2023-06-14T04:59:29;100163.28;;;14.91;100.00
54978;BME280;40873;47.522;19.106;2023-06-14T05:02:00;100162.31;;;15.03;100.00
54978;BME280;40873;47.522;19.106;2023-06-14T05:04:31;100168.53;;;15.13;100.00
54978;BME280;40873;47.522;19.106;2023-06-14T05:06:59;100165.84;;;15.24;100.00
54978;BME280;40873;47.522;19.106;2023-06-14T05:09:26;100165.69;;;15.37;100.00
54978;BME280;40873;47.522;19.106;2023-06-14T05:11:53;100164.63;;;15.49;100.00
54978;BME280;40873;47.522;19.106;2023-06-14T05:14:20;100162.78;;;15.61;100.00
54978;BME280;40873;47.522;19.106;2023-06-14T05:16:49;100162.75;;;15.72;100.00
54978;BME280;40873;47.522;19.106;2023-06-14T05:19:17;100162.66;;;15.83;100.00
54978;BME280;40873;47.522;19.106;2023-06-14T05:21:45;100159.53;;;15.99;100.00
54978;BME280;40873;47.522;19.106;2023-06-14T05:24:13;100159.13;;;16.04;100.00
54978;BME280;40873;47.522;19.106;2023-06-14T05:26:42;100165.09;;;16.17;100.00
54978;BME280;40873;47.522;19.106;2023-06-14T05:29:09;100167.22;;;16.23;100.00
54978;BME280;40873;47.522;19.106;2023-06-14T05:31:36;100160.69;;;16.27;100.00
54978;BME280;40873;47.522;19.106;2023-06-14T05:34:06;100166.25;;;16.24;100.00
54978;BME280;40873;47.522;19.106;2023-06-14T05:36:33;100161.44;;;16.18;100.00
54978;BME280;40873;47.522;19.106;2023-06-14T05:39:02;100164.56;;;16.23;100.00
54978;BME280;40873;47.522;19.106;2023-06-14T05:41:33;100167.09;;;16.25;100.00
54978;BME280;40873;47.522;19.106;2023-06-14T05:44:01;100168.94;;;16.34;100.00
54978;BME280;40873;47.522;19.106;2023-06-14T05:46:35;100164.03;;;16.29;100.00
54978;BME280;40873;47.522;19.106;2023-06-14T05:49:02;100168.56;;;16.38;100.00
54978;BME280;40873;47.522;19.106;2023-06-14T05:51:29;100171.13;;;16.50;100.00
54978;BME280;40873;47.522;19.106;2023-06-14T05:53:56;100171.72;;;16.63;100.00
54978;BME280;40873;47.522;19.106;2023-06-14T05:56:25;100172.00;;;16.60;100.00
54978;BME280;40873;47.522;19.106;2023-06-14T05:58:52;100166.78;;;16.49;100.00
54978;BME280;40873;47.522;19.106;2023-06-14T06:01:20;100172.34;;;16.36;100.00
54978;BME280;40873;47.522;19.106;2023-06-14T06:03:47;100174.09;;;16.56;100.00
54978;BME280;40873;47.522;19.106;2023-06-14T06:06:15;100176.53;;;16.69;100.00
54978;BME280;40873;47.522;19.106;2023-06-14T06:08:45;100172.38;;;16.86;100.00
54978;BME280;40873;47.522;19.106;2023-06-14T06:11:13;100167.78;;;16.97;100.00
54978;BME280;40873;47.522;19.106;2023-06-14T06:13:40;100173.41;;;17.04;98.90
54978;BME280;40873;47.522;19.106;2023-06-14T06:16:11;100163.28;;;17.08;99.87
54978;BME280;40873;47.522;19.106;2023-06-14T06:18:38;100171.56;;;17.24;99.49
54978;BME280;40873;47.522;19.106;2023-06-14T06:21:05;100166.53;;;17.40;100.00
54978;BME280;40873;47.522;19.106;2023-06-14T06:23:33;100163.28;;;17.56;98.24
54978;BME280;40873;47.522;19.106;2023-06-14T06:26:01;100175.09;;;17.73;98.00
54978;BME280;40873;47.522;19.106;2023-06-14T06:28:28;100173.69;;;17.78;95.41
54978;BME280;40873;47.522;19.106;2023-06-14T06:30:55;100167.91;;;18.02;95.75
54978;BME280;40873;47.522;19.106;2023-06-14T06:33:22;100173.88;;;18.14;93.27
54978;BME280;40873;47.522;19.106;2023-06-14T06:35:50;100179.09;;;18.06;91.92
54978;BME280;40873;47.522;19.106;2023-06-14T06:38:17;100178.03;;;17.70;92.73
54978;BME280;40873;47.522;19.106;2023-06-14T06:40:45;100174.09;;;17.84;95.63
54978;BME280;40873;47.522;19.106;2023-06-14T06:43:12;100173.06;;;18.04;93.50
54978;BME280;40873;47.522;19.106;2023-06-14T06:45:40;100166.13;;;18.30;92.21
54978;BME280;40873;47.522;19.106;2023-06-14T06:48:11;100167.34;;;18.36;90.39
54978;BME280;40873;47.522;19.106;2023-06-14T06:50:38;100168.09;;;18.56;90.43
54978;BME280;40873;47.522;19.106;2023-06-14T06:53:08;100160.97;;;18.47;89.18
54978;BME280;40873;47.522;19.106;2023-06-14T06:55:35;100162.13;;;18.44;89.62
54978;BME280;40873;47.522;19.106;2023-06-14T06:58:03;100165.63;;;18.45;88.88
54978;BME280;40873;47.522;19.106;2023-06-14T07:00:32;100164.47;;;18.47;87.45
54978;BME280;40873;47.522;19.106;2023-06-14T07:02:59;100167.50;;;18.62;87.61
54978;BME280;40873;47.522;19.106;2023-06-14T07:05:28;100170.00;;;18.73;86.49
54978;BME280;40873;47.522;19.106;2023-06-14T07:07:56;100161.41;;;18.79;87.22
54978;BME280;40873;47.522;19.106;2023-06-14T07:10:24;100168.66;;;18.87;86.45
54978;BME280;40873;47.522;19.106;2023-06-14T07:12:51;100158.72;;;18.42;86.98
54978;BME280;40873;47.522;19.106;2023-06-14T07:15:18;100170.03;;;18.36;86.92
54978;BME280;40873;47.522;19.106;2023-06-14T07:17:45;100176.31;;;18.45;87.94
54978;BME280;40873;47.522;19.106;2023-06-14T07:20:13;100178.25;;;18.43;86.19
54978;BME280;40873;47.522;19.106;2023-06-14T07:22:41;100174.00;;;18.59;86.05
54978;BME280;40873;47.522;19.106;2023-06-14T07:25:10;100181.94;;;18.79;84.11
54978;BME280;40873;47.522;19.106;2023-06-14T07:27:42;100175.00;;;18.49;85.16
54978;BME280;40873;47.522;19.106;2023-06-14T07:30:11;100167.34;;;18.63;86.05
54978;BME280;40873;47.522;19.106;2023-06-14T07:32:38;100170.28;;;18.70;84.66
54978;BME280;40873;47.522;19.106;2023-06-14T07:35:07;100173.38;;;18.75;88.09
54978;BME280;40873;47.522;19.106;2023-06-14T07:37:37;100175.69;;;18.88;84.26
54978;BME280;40873;47.522;19.106;2023-06-14T07:40:08;100178.38;;;18.88;82.99
54978;BME280;40873;47.522;19.106;2023-06-14T07:42:38;100182.28;;;18.94;80.76
54978;BME280;40873;47.522;19.106;2023-06-14T07:45:08;100182.75;;;19.07;79.84
54978;BME280;40873;47.522;19.106;2023-06-14T07:47:35;100183.84;;;19.14;79.13
54978;BME280;40873;47.522;19.106;2023-06-14T07:50:05;100181.31;;;19.12;79.19
54978;BME280;40873;47.522;19.106;2023-06-14T07:52:33;100177.25;;;19.08;78.41
54978;BME280;40873;47.522;19.106;2023-06-14T07:55:04;100177.72;;;19.22;78.96
54978;BME280;40873;47.522;19.106;2023-06-14T07:57:31;100187.88;;;19.36;79.87
54978;BME280;40873;47.522;19.106;2023-06-14T08:00:01;100185.03;;;19.37;79.37
54978;BME280;40873;47.522;19.106;2023-06-14T08:02:28;100185.19;;;19.54;79.28
54978;BME280;40873;47.522;19.106;2023-06-14T08:04:55;100182.94;;;19.59;79.34
54978;BME280;40873;47.522;19.106;2023-06-14T08:07:22;100189.34;;;19.66;76.62
54978;BME280;40873;47.522;19.106;2023-06-14T08:09:49;100185.94;;;19.82;77.27
54978;BME280;40873;47.522;19.106;2023-06-14T08:12:17;100181.69;;;19.89;76.82
54978;BME280;40873;47.522;19.106;2023-06-14T08:14:46;100186.53;;;19.93;78.65
54978;BME280;40873;47.522;19.106;2023-06-14T08:17:20;100181.13;;;19.85;77.82
54978;BME280;40873;47.522;19.106;2023-06-14T08:19:49;100181.59;;;20.07;75.95
54978;BME280;40873;47.522;19.106;2023-06-14T08:22:17;100189.03;;;20.13;71.99
54978;BME280;40873;47.522;19.106;2023-06-14T08:24:45;100179.69;;;20.51;72.85
54978;BME280;40873;47.522;19.106;2023-06-14T08:27:12;100192.66;;;20.64;72.54
54978;BME280;40873;47.522;19.106;2023-06-14T08:29:43;100189.16;;;20.71;69.52
54978;BME280;40873;47.522;19.106;2023-06-14T08:32:10;100187.28;;;20.64;70.72
54978;BME280;40873;47.522;19.106;2023-06-14T08:34:38;100184.59;;;20.56;67.96
54978;BME280;40873;47.522;19.106;2023-06-14T08:37:05;100194.31;;;20.65;68.65
54978;BME280;40873;47.522;19.106;2023-06-14T08:39:33;100190.16;;;20.36;68.91
54978;BME280;40873;47.522;19.106;2023-06-14T08:42:01;100184.84;;;20.44;70.64
54978;BME280;40873;47.522;19.106;2023-06-14T08:44:30;100189.09;;;20.55;72.17
54978;BME280;40873;47.522;19.106;2023-06-14T08:46:59;100198.25;;;20.44;68.90
54978;BME280;40873;47.522;19.106;2023-06-14T08:49:27;100200.88;;;20.36;70.54
54978;BME280;40873;47.522;19.106;2023-06-14T08:51:57;100220.16;;;20.40;71.12
54978;BME280;40873;47.522;19.106;2023-06-14T08:54:31;100213.25;;;20.37;70.59
54978;BME280;40873;47.522;19.106;2023-06-14T08:57:11;100216.72;;;20.30;71.06
54978;BME280;40873;47.522;19.106;2023-06-14T08:59:46;100219.31;;;20.13;70.44
54978;BME280;40873;47.522;19.106;2023-06-14T09:02:15;100227.47;;;20.04;71.51
54978;BME280;40873;47.522;19.106;2023-06-14T09:04:47;100223.56;;;19.98;69.30
54978;BME280;40873;47.522;19.106;2023-06-14T09:07:16;100221.84;;;20.15;70.46
54978;BME280;40873;47.522;19.106;2023-06-14T09:09:45;100223.25;;;20.27;68.81
54978;BME280;40873;47.522;19.106;2023-06-14T09:12:31;100226.59;;;20.47;67.87
54978;BME280;40873;47.522;19.106;2023-06-14T09:14:59;100218.97;;;20.42;68.50
54978;BME280;40873;47.522;19.106;2023-06-14T09:17:27;100222.16;;;20.38;67.17
54978;BME280;40873;47.522;19.106;2023-06-14T09:19:55;100221.81;;;20.59;68.39
54978;BME280;40873;47.522;19.106;2023-06-14T09:22:22;100227.63;;;20.54;67.37
54978;BME280;40873;47.522;19.106;2023-06-14T09:24:49;100232.16;;;20.53;66.52
54978;BME280;40873;47.522;19.106;2023-06-14T09:27:16;100227.44;;;20.47;67.52
54978;BME280;40873;47.522;19.106;2023-06-14T09:29:44;100229.84;;;20.59;67.87
54978;BME280;40873;47.522;19.106;2023-06-14T09:32:11;100218.25;;;20.58;69.38
54978;BME280;40873;47.522;19.106;2023-06-14T09:34:38;100223.94;;;20.55;67.01
54978;BME280;40873;47.522;19.106;2023-06-14T09:37:05;100211.13;;;20.67;67.32
54978;BME280;40873;47.522;19.106;2023-06-14T09:39:34;100215.00;;;20.72;64.38
54978;BME280;40873;47.522;19.106;2023-06-14T09:42:02;100210.53;;;20.89;63.57
54978;BME280;40873;47.522;19.106;2023-06-14T09:44:47;100206.31;;;21.45;59.93
54978;BME280;40873;47.522;19.106;2023-06-14T09:47:16;100201.31;;;21.91;59.55
54978;BME280;40873;47.522;19.106;2023-06-14T09:49:43;100199.75;;;22.29;57.99
54978;BME280;40873;47.522;19.106;2023-06-14T09:52:17;100194.38;;;22.77;62.43
54978;BME280;40873;47.522;19.106;2023-06-14T09:54:46;100195.00;;;22.95;52.82
54978;BME280;40873;47.522;19.106;2023-06-14T09:57:15;100192.59;;;22.53;54.11
54978;BME280;40873;47.522;19.106;2023-06-14T09:59:45;100185.94;;;22.80;56.15
54978;BME280;40873;47.522;19.106;2023-06-14T10:02:34;100185.41;;;23.23;59.51
54978;BME280;40873;47.522;19.106;2023-06-14T10:05:07;100186.56;;;22.98;51.31
54978;BME280;40873;47.522;19.106;2023-06-14T10:10:22;100185.09;;;22.79;49.12
54978;BME280;40873;47.522;19.106;2023-06-14T10:12:49;100190.34;;;22.73;49.04
54978;BME280;40873;47.522;19.106;2023-06-14T10:23:55;100176.53;;;23.15;47.87
54978;BME280;40873;47.522;19.106;2023-06-14T10:26:24;100174.97;;;23.43;46.70
54978;BME280;40873;47.522;19.106;2023-06-14T10:29:08;100173.09;;;23.52;46.45
54978;BME280;40873;47.522;19.106;2023-06-14T10:34:21;100161.66;;;23.73;42.29
54978;BME280;40873;47.522;19.106;2023-06-14T10:37:06;100157.63;;;23.69;40.10
54978;BME280;40873;47.522;19.106;2023-06-14T10:39:40;100160.97;;;24.09;41.00
54978;BME280;40873;47.522;19.106;2023-06-14T10:42:08;100156.19;;;23.81;41.57
54978;BME280;40873;47.522;19.106;2023-06-14T10:44:54;100163.72;;;23.86;40.00
54978;BME280;40873;47.522;19.106;2023-06-14T10:50:02;100153.84;;;24.45;42.45
54978;BME280;40873;47.522;19.106;2023-06-14T10:52:33;100161.22;;;24.87;42.08
54978;BME280;40873;47.522;19.106;2023-06-14T10:55:04;100156.41;;;24.83;40.76
54978;BME280;40873;47.522;19.106;2023-06-14T10:57:37;100155.25;;;24.92;40.75
54978;BME280;40873;47.522;19.106;2023-06-14T11:00:27;100154.38;;;24.26;41.50
54978;BME280;40873;47.522;19.106;2023-06-14T11:05:52;100152.31;;;23.15;44.00
54978;BME280;40873;47.522;19.106;2023-06-14T11:11:32;100155.84;;;23.15;43.84
54978;BME280;40873;47.522;19.106;2023-06-14T11:14:06;100145.56;;;23.65;42.74
54978;BME280;40873;47.522;19.106;2023-06-14T11:16:36;100139.97;;;24.33;41.50
54978;BME280;40873;47.522;19.106;2023-06-14T11:19:03;100148.41;;;24.60;41.34
54978;BME280;40873;47.522;19.106;2023-06-14T11:21:32;100143.00;;;24.90;40.96
54978;BME280;40873;47.522;19.106;2023-06-14T11:24:00;100132.69;;;24.78;40.89
54978;BME280;40873;47.522;19.106;2023-06-14T11:26:29;100138.91;;;24.79;42.23
54978;BME280;40873;47.522;19.106;2023-06-14T11:29:00;100146.28;;;24.70;44.20
54978;BME280;40873;47.522;19.106;2023-06-14T11:31:30;100143.50;;;24.64;46.14
54978;BME280;40873;47.522;19.106;2023-06-14T11:33:59;100122.69;;;24.43;43.03
54978;BME280;40873;47.522;19.106;2023-06-14T11:36:30;100131.22;;;24.17;45.42
54978;BME280;40873;47.522;19.106;2023-06-14T11:39:05;100140.97;;;24.03;44.95
54978;BME280;40873;47.522;19.106;2023-06-14T11:44:06;100137.59;;;23.71;45.93
54978;BME280;40873;47.522;19.106;2023-06-14T11:46:33;100143.22;;;23.99;46.04
54978;BME280;40873;47.522;19.106;2023-06-14T11:49:02;100134.00;;;23.79;47.33
54978;BME280;40873;47.522;19.106;2023-06-14T11:51:34;100137.13;;;23.68;49.05
54978;BME280;40873;47.522;19.106;2023-06-14T11:54:05;100141.03;;;23.57;48.23
54978;BME280;40873;47.522;19.106;2023-06-14T11:56:36;100137.06;;;23.53;47.62
54978;BME280;40873;47.522;19.106;2023-06-14T11:59:04;100136.06;;;23.31;48.98
54978;BME280;40873;47.522;19.106;2023-06-14T12:01:36;100139.69;;;23.15;50.20
54978;BME280;40873;47.522;19.106;2023-06-14T12:04:05;100138.06;;;23.06;50.71
54978;BME280;40873;47.522;19.106;2023-06-14T12:06:32;100144.34;;;23.21;51.38
54978;BME280;40873;47.522;19.106;2023-06-14T12:09:03;100151.06;;;23.48;49.89
54978;BME280;40873;47.522;19.106;2023-06-14T12:11:35;100153.00;;;23.17;49.21
54978;BME280;40873;47.522;19.106;2023-06-14T12:14:04;100146.13;;;24.42;47.66
54978;BME280;40873;47.522;19.106;2023-06-14T12:16:34;100146.97;;;24.94;47.20
54978;BME280;40873;47.522;19.106;2023-06-14T12:19:16;100136.53;;;25.05;45.97
54978;BME280;40873;47.522;19.106;2023-06-14T12:21:46;100140.97;;;24.77;45.77
54978;BME280;40873;47.522;19.106;2023-06-14T12:24:18;100138.44;;;24.75;47.89
54978;BME280;40873;47.522;19.106;2023-06-14T12:26:51;100138.59;;;24.38;48.21
54978;BME280;40873;47.522;19.106;2023-06-14T12:29:19;100143.78;;;24.24;49.05
54978;BME280;40873;47.522;19.106;2023-06-14T12:31:46;100145.81;;;23.93;47.63
54978;BME280;40873;47.522;19.106;2023-06-14T12:34:19;100138.72;;;23.77;48.15
54978;BME280;40873;47.522;19.106;2023-06-14T12:36:46;100138.28;;;23.88;48.52
54978;BME280;40873;47.522;19.106;2023-06-14T12:39:17;100147.41;;;24.46;47.73
54978;BME280;40873;47.522;19.106;2023-06-14T12:41:46;100150.38;;;25.38;46.77
54978;BME280;40873;47.522;19.106;2023-06-14T12:44:13;100142.41;;;25.80;46.51
54978;BME280;40873;47.522;19.106;2023-06-14T12:46:41;100142.03;;;25.83;44.85
54978;BME280;40873;47.522;19.106;2023-06-14T12:49:12;100140.13;;;25.55;44.67
54978;BME280;40873;47.522;19.106;2023-06-14T12:51:40;100150.88;;;25.06;43.19
54978;BME280;40873;47.522;19.106;2023-06-14T12:54:07;100161.47;;;25.07;44.59
54978;BME280;40873;47.522;19.106;2023-06-14T12:56:37;100151.38;;;24.80;44.04
54978;BME280;40873;47.522;19.106;2023-06-14T12:59:05;100150.97;;;24.98;41.94
54978;BME280;40873;47.522;19.106;2023-06-14T13:01:37;100143.69;;;25.34;42.04
54978;BME280;40873;47.522;19.106;2023-06-14T13:04:06;100145.78;;;25.82;41.90
54978;BME280;40873;47.522;19.106;2023-06-14T13:06:33;100137.88;;;25.87;44.37
54978;BME280;40873;47.522;19.106;2023-06-14T13:09:01;100139.16;;;25.41;44.13
54978;BME280;40873;47.522;19.106;2023-06-14T13:11:28;100135.72;;;25.26;41.74
54978;BME280;40873;47.522;19.106;2023-06-14T13:13:56;100128.34;;;24.99;43.52
54978;BME280;40873;47.522;19.106;2023-06-14T13:16:23;100133.22;;;24.74;44.59